sensor_id;sensor_type;location;lat;lon;timestamp;temperature;humidity
10344;DHT22;5217;43.960;10.954;2022-09-09T00:01:28;27.80;99.90
10344;DHT22;5217;43.960;10.954;2022-09-09T00:04:02;27.80;99.90
10344;DHT22;5217;43.960;10.954;2022-09-09T00:06:43;27.80;99.90
10344;DHT22;5217;43.960;10.954;2022-09-09T00:09:14;27.80;99.90
10344;DHT22;5217;43.960;10.954;2022-09-09T00:11:47;27.80;99.90
10344;DHT22;5217;43.960;10.954;2022-09-09T00:14:22;27.80;99.90
10344;DHT22;5217;43.960;10.954;2022-09-09T00:17:00;27.70;99.90
10344;DHT22;5217;43.960;10.954;2022-09-09T00:19:35;27.70;99.90
10344;DHT22;5217;43.960;10.954;2022-09-09T00:22:15;27.70;99.90
10344;DHT22;5217;43.960;10.954;2022-09-09T00:24:46;27.70;99.90
10344;DHT22;5217;43.960;10.954;2022-09-09T00:27:22;27.70;99.90
10344;DHT22;5217;43.960;10.954;2022-09-09T00:29:54;27.70;99.90
10344;DHT22;5217;43.960;10.954;2022-09-09T00:32:28;27.70;99.90
10344;DHT22;5217;43.960;10.954;2022-09-09T00:35:02;27.70;99.90
10344;DHT22;5217;43.960;10.954;2022-09-09T00:37:34;27.60;99.90
10344;DHT22;5217;43.960;10.954;2022-09-09T00:40:08;27.60;99.90
10344;DHT22;5217;43.960;10.954;2022-09-09T00:42:44;27.60;99.90
10344;DHT22;5217;43.960;10.954;2022-09-09T00:45:24;27.60;99.90
10344;DHT22;5217;43.960;10.954;2022-09-09T00:48:01;27.50;99.90
10344;DHT22;5217;43.960;10.954;2022-09-09T00:50:43;27.50;99.90
10344;DHT22;5217;43.960;10.954;2022-09-09T00:53:26;27.50;99.90
10344;DHT22;5217;43.960;10.954;2022-09-09T00:56:05;27.50;99.90
10344;DHT22;5217;43.960;10.954;2022-09-09T00:58:36;27.40;99.90
10344;DHT22;5217;43.960;10.954;2022-09-09T01:01:05;27.40;99.90
10344;DHT22;5217;43.960;10.954;2022-09-09T01:03:36;27.40;99.90
10344;DHT22;5217;43.960;10.954;2022-09-09T01:06:14;27.50;99.90
10344;DHT22;5217;43.960;10.954;2022-09-09T01:09:04;27.40;99.90
10344;DHT22;5217;43.960;10.954;2022-09-09T01:11:43;27.40;99.90
10344;DHT22;5217;43.960;10.954;2022-09-09T01:14:27;27.40;99.90
10344;DHT22;5217;43.960;10.954;2022-09-09T01:17:01;27.40;99.90
10344;DHT22;5217;43.960;10.954;2022-09-09T01:19:39;27.40;99.90
10344;DHT22;5217;43.960;10.954;2022-09-09T01:22:13;27.50;99.90
10344;DHT22;5217;43.960;10.954;2022-09-09T01:25:01;27.50;99.90
10344;DHT22;5217;43.960;10.954;2022-09-09T01:27:37;27.50;99.90
10344;DHT22;5217;43.960;10.954;2022-09-09T01:30:10;27.50;99.90
10344;DHT22;5217;43.960;10.954;2022-09-09T01:32:42;27.50;99.90
10344;DHT22;5217;43.960;10.954;2022-09-09T01:35:15;27.50;99.90
10344;DHT22;5217;43.960;10.954;2022-09-09T01:37:45;27.50;99.90
10344;DHT22;5217;43.960;10.954;2022-09-09T01:40:14;27.50;99.90
10344;DHT22;5217;43.960;10.954;2022-09-09T01:42:44;27.40;99.90
10344;DHT22;5217;43.960;10.954;2022-09-09T01:45:12;27.40;99.90
10344;DHT22;5217;43.960;10.954;2022-09-09T01:47:41;27.40;99.90
10344;DHT22;5217;43.960;10.954;2022-09-09T01:50:12;27.40;99.90
10344;DHT22;5217;43.960;10.954;2022-09-09T01:52:41;27.40;99.90
10344;DHT22;5217;43.960;10.954;2022-09-09T01:55:11;27.40;99.90
10344;DHT22;5217;43.960;10.954;2022-09-09T01:57:46;27.40;99.90
10344;DHT22;5217;43.960;10.954;2022-09-09T02:00:18;27.40;99.90
10344;DHT22;5217;43.960;10.954;2022-09-09T02:02:54;27.40;99.90
10344;DHT22;5217;43.960;10.954;2022-09-09T02:05:33;27.30;99.90
10344;DHT22;5217;43.960;10.954;2022-09-09T02:08:07;27.30;99.90
10344;DHT22;5217;43.960;10.954;2022-09-09T02:10:40;27.30;99.90
10344;DHT22;5217;43.960;10.954;2022-09-09T02:13:14;27.30;99.90
10344;DHT22;5217;43.960;10.954;2022-09-09T02:15:45;27.30;99.90
10344;DHT22;5217;43.960;10.954;2022-09-09T02:18:18;27.30;99.90
10344;DHT22;5217;43.960;10.954;2022-09-09T02:20:49;27.20;99.90
10344;DHT22;5217;43.960;10.954;2022-09-09T02:23:19;27.20;99.90
10344;DHT22;5217;43.960;10.954;2022-09-09T02:25:49;27.20;99.90
10344;DHT22;5217;43.960;10.954;2022-09-09T02:28:22;27.20;99.90
10344;DHT22;5217;43.960;10.954;2022-09-09T02:30:52;27.20;99.90
10344;DHT22;5217;43.960;10.954;2022-09-09T02:33:25;27.20;99.90
10344;DHT22;5217;43.960;10.954;2022-09-09T02:35:55;27.20;99.90
10344;DHT22;5217;43.960;10.954;2022-09-09T02:38:32;27.20;99.90
10344;DHT22;5217;43.960;10.954;2022-09-09T02:41:03;27.20;99.90
10344;DHT22;5217;43.960;10.954;2022-09-09T02:43:34;27.10;99.90
10344;DHT22;5217;43.960;10.954;2022-09-09T02:46:17;27.10;99.90
10344;DHT22;5217;43.960;10.954;2022-09-09T02:48:55;27.10;99.90
10344;DHT22;5217;43.960;10.954;2022-09-09T02:51:34;27.10;99.90
10344;DHT22;5217;43.960;10.954;2022-09-09T02:54:09;27.10;99.90
10344;DHT22;5217;43.960;10.954;2022-09-09T02:56:43;27.10;99.90
10344;DHT22;5217;43.960;10.954;2022-09-09T02:59:15;27.10;99.90
10344;DHT22;5217;43.960;10.954;2022-09-09T03:01:44;27.10;99.90
10344;DHT22;5217;43.960;10.954;2022-09-09T03:04:13;27.10;99.90
10344;DHT22;5217;43.960;10.954;2022-09-09T03:06:42;27.00;99.90
10344;DHT22;5217;43.960;10.954;2022-09-09T03:09:11;27.00;99.90
10344;DHT22;5217;43.960;10.954;2022-09-09T03:11:39;27.00;99.90
10344;DHT22;5217;43.960;10.954;2022-09-09T03:14:07;27.00;99.90
10344;DHT22;5217;43.960;10.954;2022-09-09T03:16:39;27.00;99.90
10344;DHT22;5217;43.960;10.954;2022-09-09T03:19:09;27.00;99.90
10344;DHT22;5217;43.960;10.954;2022-09-09T03:21:37;26.90;99.90
10344;DHT22;5217;43.960;10.954;2022-09-09T03:24:06;26.90;99.90
10344;DHT22;5217;43.960;10.954;2022-09-09T03:26:34;26.90;99.90
10344;DHT22;5217;43.960;10.954;2022-09-09T03:29:04;26.90;99.90
10344;DHT22;5217;43.960;10.954;2022-09-09T03:31:33;26.90;99.90
10344;DHT22;5217;43.960;10.954;2022-09-09T03:34:04;26.90;99.90
10344;DHT22;5217;43.960;10.954;2022-09-09T03:36:33;26.90;99.90
10344;DHT22;5217;43.960;10.954;2022-09-09T03:39:01;26.90;99.90
10344;DHT22;5217;43.960;10.954;2022-09-09T03:41:30;26.90;99.90
10344;DHT22;5217;43.960;10.954;2022-09-09T03:43:58;26.90;99.90
10344;DHT22;5217;43.960;10.954;2022-09-09T03:46:27;26.80;99.90
10344;DHT22;5217;43.960;10.954;2022-09-09T03:48:55;26.80;99.90
10344;DHT22;5217;43.960;10.954;2022-09-09T03:51:25;26.80;99.90
10344;DHT22;5217;43.960;10.954;2022-09-09T03:53:53;26.80;99.90
10344;DHT22;5217;43.960;10.954;2022-09-09T03:56:23;26.80;99.90
10344;DHT22;5217;43.960;10.954;2022-09-09T03:58:52;26.80;99.90
10344;DHT22;5217;43.960;10.954;2022-09-09T04:01:20;26.70;99.90
10344;DHT22;5217;43.960;10.954;2022-09-09T04:03:49;26.70;99.90
10344;DHT22;5217;43.960;10.954;2022-09-09T04:06:19;26.70;99.90
10344;DHT22;5217;43.960;10.954;2022-09-09T04:08:49;26.70;99.90
10344;DHT22;5217;43.960;10.954;2022-09-09T04:11:19;26.70;99.90
10344;DHT22;5217;43.960;10.954;2022-09-09T04:13:48;26.70;99.90
10344;DHT22;5217;43.960;10.954;2022-09-09T04:16:16;26.60;99.90
10344;DHT22;5217;43.960;10.954;2022-09-09T04:18:45;26.70;99.90
10344;DHT22;5217;43.960;10.954;2022-09-09T04:21:13;26.60;99.90
10344;DHT22;5217;43.960;10.954;2022-09-09T04:23:43;26.60;99.90
10344;DHT22;5217;43.960;10.954;2022-09-09T04:26:12;26.60;99.90
10344;DHT22;5217;43.960;10.954;2022-09-09T04:28:41;26.60;99.90
10344;DHT22;5217;43.960;10.954;2022-09-09T04:31:11;26.60;99.90
10344;DHT22;5217;43.960;10.954;2022-09-09T04:33:41;26.60;99.90
10344;DHT22;5217;43.960;10.954;2022-09-09T04:36:10;26.60;99.90
10344;DHT22;5217;43.960;10.954;2022-09-09T04:38:39;26.60;99.90
10344;DHT22;5217;43.960;10.954;2022-09-09T04:41:08;26.60;99.90
10344;DHT22;5217;43.960;10.954;2022-09-09T04:43:39;26.60;99.90
10344;DHT22;5217;43.960;10.954;2022-09-09T04:46:07;26.60;99.90
10344;DHT22;5217;43.960;10.954;2022-09-09T04:48:36;26.60;99.90
10344;DHT22;5217;43.960;10.954;2022-09-09T04:51:08;26.60;99.90
10344;DHT22;5217;43.960;10.954;2022-09-09T04:53:36;26.50;99.90
10344;DHT22;5217;43.960;10.954;2022-09-09T04:56:07;26.50;99.90
10344;DHT22;5217;43.960;10.954;2022-09-09T04:58:38;26.60;99.90
10344;DHT22;5217;43.960;10.954;2022-09-09T05:01:10;26.50;99.90
10344;DHT22;5217;43.960;10.954;2022-09-09T05:03:39;26.50;99.90
10344;DHT22;5217;43.960;10.954;2022-09-09T05:06:09;26.50;99.90
10344;DHT22;5217;43.960;10.954;2022-09-09T05:08:39;26.50;99.90
10344;DHT22;5217;43.960;10.954;2022-09-09T05:11:17;26.50;99.90
10344;DHT22;5217;43.960;10.954;2022-09-09T05:13:47;26.50;99.90
10344;DHT22;5217;43.960;10.954;2022-09-09T05:16:17;26.50;99.90
10344;DHT22;5217;43.960;10.954;2022-09-09T05:18:46;26.60;99.90
10344;DHT22;5217;43.960;10.954;2022-09-09T05:21:15;26.60;99.90
10344;DHT22;5217;43.960;10.954;2022-09-09T05:23:45;26.60;99.90
10344;DHT22;5217;43.960;10.954;2022-09-09T05:26:15;26.60;99.90
10344;DHT22;5217;43.960;10.954;2022-09-09T05:28:44;26.60;99.90
10344;DHT22;5217;43.960;10.954;2022-09-09T05:31:16;26.60;99.90
10344;DHT22;5217;43.960;10.954;2022-09-09T05:33:45;26.60;99.90
10344;DHT22;5217;43.960;10.954;2022-09-09T05:36:16;26.50;99.90
10344;DHT22;5217;43.960;10.954;2022-09-09T05:38:45;26.60;99.90
10344;DHT22;5217;43.960;10.954;2022-09-09T05:41:14;26.50;99.90
10344;DHT22;5217;43.960;10.954;2022-09-09T05:43:44;26.50;99.90
10344;DHT22;5217;43.960;10.954;2022-09-09T05:46:17;26.60;99.90
10344;DHT22;5217;43.960;10.954;2022-09-09T05:48:47;26.60;99.90
10344;DHT22;5217;43.960;10.954;2022-09-09T05:51:19;26.60;99.90
10344;DHT22;5217;43.960;10.954;2022-09-09T05:53:49;26.60;99.90
10344;DHT22;5217;43.960;10.954;2022-09-09T05:56:19;26.60;99.90
10344;DHT22;5217;43.960;10.954;2022-09-09T05:58:49;26.60;99.90
10344;DHT22;5217;43.960;10.954;2022-09-09T06:01:21;26.60;99.90
10344;DHT22;5217;43.960;10.954;2022-09-09T06:03:50;26.60;99.90
10344;DHT22;5217;43.960;10.954;2022-09-09T06:06:20;26.60;99.90
10344;DHT22;5217;43.960;10.954;2022-09-09T06:08:51;26.60;99.90
10344;DHT22;5217;43.960;10.954;2022-09-09T06:11:21;26.60;99.90
10344;DHT22;5217;43.960;10.954;2022-09-09T06:13:50;26.60;99.90
10344;DHT22;5217;43.960;10.954;2022-09-09T06:16:23;26.50;99.90
10344;DHT22;5217;43.960;10.954;2022-09-09T06:18:53;26.60;99.90
10344;DHT22;5217;43.960;10.954;2022-09-09T06:21:24;26.60;99.90
10344;DHT22;5217;43.960;10.954;2022-09-09T06:23:53;26.60;99.90
10344;DHT22;5217;43.960;10.954;2022-09-09T06:26:28;26.50;99.90
10344;DHT22;5217;43.960;10.954;2022-09-09T06:29:24;26.50;99.90
10344;DHT22;5217;43.960;10.954;2022-09-09T06:31:54;26.50;99.90
10344;DHT22;5217;43.960;10.954;2022-09-09T06:34:22;26.50;99.90
10344;DHT22;5217;43.960;10.954;2022-09-09T06:36:51;26.50;99.90
10344;DHT22;5217;43.960;10.954;2022-09-09T06:39:19;26.50;99.90
10344;DHT22;5217;43.960;10.954;2022-09-09T06:41:48;26.50;99.90
10344;DHT22;5217;43.960;10.954;2022-09-09T06:44:23;26.50;99.90
10344;DHT22;5217;43.960;10.954;2022-09-09T06:47:00;26.50;99.90
10344;DHT22;5217;43.960;10.954;2022-09-09T06:49:29;26.50;99.90
10344;DHT22;5217;43.960;10.954;2022-09-09T06:51:57;26.60;99.90
10344;DHT22;5217;43.960;10.954;2022-09-09T06:54:25;26.50;99.90
10344;DHT22;5217;43.960;10.954;2022-09-09T06:56:54;26.50;99.90
10344;DHT22;5217;43.960;10.954;2022-09-09T06:59:23;26.50;99.90
10344;DHT22;5217;43.960;10.954;2022-09-09T07:01:51;26.50;99.90
10344;DHT22;5217;43.960;10.954;2022-09-09T07:04:23;26.50;99.90
10344;DHT22;5217;43.960;10.954;2022-09-09T07:06:52;26.60;99.90
10344;DHT22;5217;43.960;10.954;2022-09-09T07:09:20;26.50;99.90
10344;DHT22;5217;43.960;10.954;2022-09-09T07:11:51;26.60;99.90
10344;DHT22;5217;43.960;10.954;2022-09-09T07:14:19;26.60;99.90
10344;DHT22;5217;43.960;10.954;2022-09-09T07:16:48;26.60;99.90
10344;DHT22;5217;43.960;10.954;2022-09-09T07:19:17;26.60;99.90
10344;DHT22;5217;43.960;10.954;2022-09-09T07:21:46;26.60;99.90
10344;DHT22;5217;43.960;10.954;2022-09-09T07:24:15;26.60;99.90
10344;DHT22;5217;43.960;10.954;2022-09-09T07:26:43;26.70;99.90
10344;DHT22;5217;43.960;10.954;2022-09-09T07:29:13;26.60;99.90
10344;DHT22;5217;43.960;10.954;2022-09-09T07:31:46;26.60;99.90
10344;DHT22;5217;43.960;10.954;2022-09-09T07:34:15;26.70;99.90
10344;DHT22;5217;43.960;10.954;2022-09-09T07:36:44;26.70;99.90
10344;DHT22;5217;43.960;10.954;2022-09-09T07:39:14;26.70;99.90
10344;DHT22;5217;43.960;10.954;2022-09-09T07:41:45;26.80;99.90
10344;DHT22;5217;43.960;10.954;2022-09-09T07:44:15;26.80;99.90
10344;DHT22;5217;43.960;10.954;2022-09-09T07:46:44;26.80;99.90
10344;DHT22;5217;43.960;10.954;2022-09-09T07:49:13;26.80;99.90
10344;DHT22;5217;43.960;10.954;2022-09-09T07:51:44;26.80;99.90
10344;DHT22;5217;43.960;10.954;2022-09-09T07:54:16;26.80;99.90
10344;DHT22;5217;43.960;10.954;2022-09-09T07:56:47;26.90;99.90
10344;DHT22;5217;43.960;10.954;2022-09-09T07:59:17;26.90;99.90
10344;DHT22;5217;43.960;10.954;2022-09-09T08:01:47;26.90;99.90
10344;DHT22;5217;43.960;10.954;2022-09-09T08:04:17;26.90;99.90
10344;DHT22;5217;43.960;10.954;2022-09-09T08:06:48;26.90;99.90
10344;DHT22;5217;43.960;10.954;2022-09-09T08:09:19;27.00;99.90
10344;DHT22;5217;43.960;10.954;2022-09-09T08:11:47;26.90;99.90
10344;DHT22;5217;43.960;10.954;2022-09-09T08:14:16;26.90;99.90
10344;DHT22;5217;43.960;10.954;2022-09-09T08:16:46;26.90;99.90
10344;DHT22;5217;43.960;10.954;2022-09-09T08:19:15;26.90;99.90
10344;DHT22;5217;43.960;10.954;2022-09-09T08:21:45;26.90;99.90
10344;DHT22;5217;43.960;10.954;2022-09-09T08:24:13;26.90;99.90
10344;DHT22;5217;43.960;10.954;2022-09-09T08:26:45;26.90;99.90
10344;DHT22;5217;43.960;10.954;2022-09-09T08:29:14;26.90;99.90
10344;DHT22;5217;43.960;10.954;2022-09-09T08:31:45;27.00;99.90
10344;DHT22;5217;43.960;10.954;2022-09-09T08:34:14;27.00;99.90
10344;DHT22;5217;43.960;10.954;2022-09-09T08:36:44;27.00;99.90
10344;DHT22;5217;43.960;10.954;2022-09-09T08:39:14;27.00;99.90
10344;DHT22;5217;43.960;10.954;2022-09-09T08:42:15;27.00;99.90
10344;DHT22;5217;43.960;10.954;2022-09-09T08:45:03;27.00;99.90
10344;DHT22;5217;43.960;10.954;2022-09-09T08:47:42;27.10;99.90
10344;DHT22;5217;43.960;10.954;2022-09-09T08:50:21;27.10;99.90
10344;DHT22;5217;43.960;10.954;2022-09-09T08:52:57;27.00;99.90
10344;DHT22;5217;43.960;10.954;2022-09-09T08:55:37;27.00;99.90
10344;DHT22;5217;43.960;10.954;2022-09-09T08:58:12;27.10;99.90
10344;DHT22;5217;43.960;10.954;2022-09-09T09:00:54;27.10;99.90
10344;DHT22;5217;43.960;10.954;2022-09-09T09:03:33;27.10;99.90
10344;DHT22;5217;43.960;10.954;2022-09-09T09:06:10;27.00;99.90
10344;DHT22;5217;43.960;10.954;2022-09-09T09:08:46;27.10;99.90
10344;DHT22;5217;43.960;10.954;2022-09-09T09:11:18;27.00;99.90
10344;DHT22;5217;43.960;10.954;2022-09-09T09:13:53;27.10;99.90
10344;DHT22;5217;43.960;10.954;2022-09-09T09:16:29;27.10;99.90
10344;DHT22;5217;43.960;10.954;2022-09-09T09:18:59;27.10;99.90
10344;DHT22;5217;43.960;10.954;2022-09-09T09:21:34;27.10;99.90
10344;DHT22;5217;43.960;10.954;2022-09-09T09:24:07;27.10;99.90
10344;DHT22;5217;43.960;10.954;2022-09-09T09:26:47;27.10;99.90
10344;DHT22;5217;43.960;10.954;2022-09-09T09:29:19;27.20;99.90
10344;DHT22;5217;43.960;10.954;2022-09-09T09:31:51;27.20;99.90
10344;DHT22;5217;43.960;10.954;2022-09-09T09:34:21;27.10;99.10
10344;DHT22;5217;43.960;10.954;2022-09-09T09:36:54;27.10;98.30
10344;DHT22;5217;43.960;10.954;2022-09-09T09:39:25;27.20;97.90
10344;DHT22;5217;43.960;10.954;2022-09-09T09:42:16;27.20;97.80
10344;DHT22;5217;43.960;10.954;2022-09-09T09:44:50;27.20;97.80
10344;DHT22;5217;43.960;10.954;2022-09-09T09:47:20;27.10;97.20
10344;DHT22;5217;43.960;10.954;2022-09-09T09:49:52;27.10;96.80
10344;DHT22;5217;43.960;10.954;2022-09-09T09:52:23;27.20;96.80
10344;DHT22;5217;43.960;10.954;2022-09-09T09:54:53;27.20;97.20
10344;DHT22;5217;43.960;10.954;2022-09-09T09:57:25;27.30;96.90
10344;DHT22;5217;43.960;10.954;2022-09-09T10:00:13;27.30;96.60
10344;DHT22;5217;43.960;10.954;2022-09-09T10:02:45;27.30;95.70
10344;DHT22;5217;43.960;10.954;2022-09-09T10:05:19;27.30;95.50
10344;DHT22;5217;43.960;10.954;2022-09-09T10:08:03;27.30;95.50
10344;DHT22;5217;43.960;10.954;2022-09-09T10:10:42;27.30;94.80
10344;DHT22;5217;43.960;10.954;2022-09-09T10:13:19;27.30;93.80
10344;DHT22;5217;43.960;10.954;2022-09-09T10:15:59;27.30;94.10
10344;DHT22;5217;43.960;10.954;2022-09-09T10:18:39;27.30;94.30
10344;DHT22;5217;43.960;10.954;2022-09-09T10:21:20;27.40;94.40
10344;DHT22;5217;43.960;10.954;2022-09-09T10:24:07;27.30;94.40
10344;DHT22;5217;43.960;10.954;2022-09-09T10:26:42;27.30;94.50
10344;DHT22;5217;43.960;10.954;2022-09-09T10:29:26;27.30;94.60
10344;DHT22;5217;43.960;10.954;2022-09-09T10:32:11;27.30;94.70
10344;DHT22;5217;43.960;10.954;2022-09-09T10:34:54;27.40;94.90
10344;DHT22;5217;43.960;10.954;2022-09-09T10:37:35;27.40;95.00
10344;DHT22;5217;43.960;10.954;2022-09-09T10:40:19;27.40;95.70
10344;DHT22;5217;43.960;10.954;2022-09-09T10:42:52;27.40;96.70
10344;DHT22;5217;43.960;10.954;2022-09-09T10:45:27;27.40;97.70
10344;DHT22;5217;43.960;10.954;2022-09-09T10:48:15;27.40;98.00
10344;DHT22;5217;43.960;10.954;2022-09-09T10:50:51;27.30;98.50
10344;DHT22;5217;43.960;10.954;2022-09-09T10:53:36;27.40;98.80
10344;DHT22;5217;43.960;10.954;2022-09-09T10:56:09;27.30;99.10
10344;DHT22;5217;43.960;10.954;2022-09-09T10:58:41;27.40;99.30
10344;DHT22;5217;43.960;10.954;2022-09-09T11:01:18;27.40;99.60
10344;DHT22;5217;43.960;10.954;2022-09-09T11:03:53;27.40;99.90
10344;DHT22;5217;43.960;10.954;2022-09-09T11:06:29;27.30;99.90
10344;DHT22;5217;43.960;10.954;2022-09-09T11:09:02;27.30;99.90
10344;DHT22;5217;43.960;10.954;2022-09-09T11:11:36;27.40;99.90
10344;DHT22;5217;43.960;10.954;2022-09-09T11:14:12;27.40;99.90
10344;DHT22;5217;43.960;10.954;2022-09-09T11:16:48;27.40;99.90
10344;DHT22;5217;43.960;10.954;2022-09-09T11:19:21;27.40;99.90
10344;DHT22;5217;43.960;10.954;2022-09-09T11:21:53;27.40;99.90
10344;DHT22;5217;43.960;10.954;2022-09-09T11:24:28;27.40;99.90
10344;DHT22;5217;43.960;10.954;2022-09-09T11:27:02;27.40;99.90
10344;DHT22;5217;43.960;10.954;2022-09-09T11:29:57;27.40;99.90
10344;DHT22;5217;43.960;10.954;2022-09-09T11:32:54;27.40;99.90
10344;DHT22;5217;43.960;10.954;2022-09-09T11:35:38;27.40;99.90
10344;DHT22;5217;43.960;10.954;2022-09-09T11:38:21;27.50;99.90
10344;DHT22;5217;43.960;10.954;2022-09-09T11:40:55;27.50;99.90
10344;DHT22;5217;43.960;10.954;2022-09-09T11:43:27;27.60;99.90
10344;DHT22;5217;43.960;10.954;2022-09-09T11:45:57;27.50;99.90
10344;DHT22;5217;43.960;10.954;2022-09-09T11:48:32;27.50;99.90
10344;DHT22;5217;43.960;10.954;2022-09-09T11:51:05;27.50;99.90
10344;DHT22;5217;43.960;10.954;2022-09-09T11:53:49;27.60;99.90
10344;DHT22;5217;43.960;10.954;2022-09-09T11:56:31;27.60;99.90
10344;DHT22;5217;43.960;10.954;2022-09-09T11:59:02;27.90;99.90
10344;DHT22;5217;43.960;10.954;2022-09-09T12:01:35;28.10;99.90
10344;DHT22;5217;43.960;10.954;2022-09-09T12:07:04;28.70;99.90
10344;DHT22;5217;43.960;10.954;2022-09-09T12:09:46;29.20;99.90
10344;DHT22;5217;43.960;10.954;2022-09-09T12:12:23;29.60;99.90
10344;DHT22;5217;43.960;10.954;2022-09-09T12:15:00;30.00;99.20
10344;DHT22;5217;43.960;10.954;2022-09-09T12:17:30;30.40;98.20
10344;DHT22;5217;43.960;10.954;2022-09-09T12:20:08;30.40;97.40
10344;DHT22;5217;43.960;10.954;2022-09-09T12:22:55;30.20;96.90
10344;DHT22;5217;43.960;10.954;2022-09-09T12:25:32;30.10;96.80
10344;DHT22;5217;43.960;10.954;2022-09-09T12:28:08;30.00;96.50
10344;DHT22;5217;43.960;10.954;2022-09-09T12:30:48;29.80;96.10
10344;DHT22;5217;43.960;10.954;2022-09-09T12:33:19;29.70;95.80
10344;DHT22;5217;43.960;10.954;2022-09-09T12:35:52;29.60;95.50
10344;DHT22;5217;43.960;10.954;2022-09-09T12:38:29;29.50;95.60
10344;DHT22;5217;43.960;10.954;2022-09-09T12:41:00;29.50;95.70
10344;DHT22;5217;43.960;10.954;2022-09-09T12:43:29;29.60;96.00
10344;DHT22;5217;43.960;10.954;2022-09-09T12:46:01;29.60;96.30
10344;DHT22;5217;43.960;10.954;2022-09-09T12:48:35;29.60;96.50
10344;DHT22;5217;43.960;10.954;2022-09-09T12:51:23;29.50;96.50
10344;DHT22;5217;43.960;10.954;2022-09-09T12:53:55;29.50;96.60
10344;DHT22;5217;43.960;10.954;2022-09-09T12:56:26;29.40;97.00
10344;DHT22;5217;43.960;10.954;2022-09-09T12:59:05;29.40;97.10
10344;DHT22;5217;43.960;10.954;2022-09-09T13:01:42;29.30;97.20
10344;DHT22;5217;43.960;10.954;2022-09-09T13:04:38;29.40;97.20
10344;DHT22;5217;43.960;10.954;2022-09-09T13:07:27;29.40;97.00
10344;DHT22;5217;43.960;10.954;2022-09-09T13:10:14;29.30;97.40
10344;DHT22;5217;43.960;10.954;2022-09-09T13:13:04;29.30;97.30
10344;DHT22;5217;43.960;10.954;2022-09-09T13:15:57;29.20;97.60
10344;DHT22;5217;43.960;10.954;2022-09-09T13:18:35;29.20;97.20
10344;DHT22;5217;43.960;10.954;2022-09-09T13:21:30;29.10;97.10
10344;DHT22;5217;43.960;10.954;2022-09-09T13:24:04;29.20;97.50
10344;DHT22;5217;43.960;10.954;2022-09-09T13:26:40;29.30;97.80
10344;DHT22;5217;43.960;10.954;2022-09-09T13:29:17;29.40;97.80
10344;DHT22;5217;43.960;10.954;2022-09-09T13:31:55;29.80;97.60
10344;DHT22;5217;43.960;10.954;2022-09-09T13:38:08;30.20;95.50
10344;DHT22;5217;43.960;10.954;2022-09-09T13:40:57;30.10;94.80
10344;DHT22;5217;43.960;10.954;2022-09-09T13:43:28;30.00;94.80
10344;DHT22;5217;43.960;10.954;2022-09-09T13:45:58;30.30;95.10
10344;DHT22;5217;43.960;10.954;2022-09-09T13:48:28;30.90;94.90
10344;DHT22;5217;43.960;10.954;2022-09-09T13:51:03;31.40;94.20
10344;DHT22;5217;43.960;10.954;2022-09-09T13:53:32;31.70;93.50
10344;DHT22;5217;43.960;10.954;2022-09-09T13:56:01;31.70;91.50
10344;DHT22;5217;43.960;10.954;2022-09-09T13:58:31;32.10;91.10
10344;DHT22;5217;43.960;10.954;2022-09-09T14:01:00;32.50;90.80
10344;DHT22;5217;43.960;10.954;2022-09-09T14:03:29;33.00;90.50
10344;DHT22;5217;43.960;10.954;2022-09-09T14:05:57;33.30;89.30
10344;DHT22;5217;43.960;10.954;2022-09-09T14:08:27;33.50;87.80
10344;DHT22;5217;43.960;10.954;2022-09-09T14:11:04;33.70;86.80
10344;DHT22;5217;43.960;10.954;2022-09-09T14:13:34;33.90;86.30
10344;DHT22;5217;43.960;10.954;2022-09-09T14:16:04;34.00;83.10
10344;DHT22;5217;43.960;10.954;2022-09-09T14:18:33;34.10;82.80
10344;DHT22;5217;43.960;10.954;2022-09-09T14:21:02;34.20;81.20
10344;DHT22;5217;43.960;10.954;2022-09-09T14:23:31;34.40;81.40
10344;DHT22;5217;43.960;10.954;2022-09-09T14:26:00;34.60;80.30
10344;DHT22;5217;43.960;10.954;2022-09-09T14:28:34;34.70;80.50
10344;DHT22;5217;43.960;10.954;2022-09-09T14:31:21;35.00;81.40
10344;DHT22;5217;43.960;10.954;2022-09-09T14:33:50;34.80;80.20
10344;DHT22;5217;43.960;10.954;2022-09-09T14:36:19;34.60;79.90
10344;DHT22;5217;43.960;10.954;2022-09-09T14:38:48;34.60;79.70
10344;DHT22;5217;43.960;10.954;2022-09-09T14:41:18;34.80;80.00
10344;DHT22;5217;43.960;10.954;2022-09-09T14:43:51;35.00;80.20
10344;DHT22;5217;43.960;10.954;2022-09-09T14:46:21;35.10;79.60
10344;DHT22;5217;43.960;10.954;2022-09-09T14:48:50;35.30;79.80
10344;DHT22;5217;43.960;10.954;2022-09-09T14:51:24;35.40;79.90
10344;DHT22;5217;43.960;10.954;2022-09-09T14:53:55;35.30;80.60
10344;DHT22;5217;43.960;10.954;2022-09-09T14:56:35;35.40;81.30
10344;DHT22;5217;43.960;10.954;2022-09-09T14:59:14;35.40;81.30
10344;DHT22;5217;43.960;10.954;2022-09-09T15:01:55;35.30;81.00
10344;DHT22;5217;43.960;10.954;2022-09-09T15:04:24;35.20;82.20
10344;DHT22;5217;43.960;10.954;2022-09-09T15:06:52;35.30;82.30
10344;DHT22;5217;43.960;10.954;2022-09-09T15:09:21;35.30;81.20
10344;DHT22;5217;43.960;10.954;2022-09-09T15:11:50;35.30;81.50
10344;DHT22;5217;43.960;10.954;2022-09-09T15:14:22;35.30;81.90
10344;DHT22;5217;43.960;10.954;2022-09-09T15:16:57;35.30;81.40
10344;DHT22;5217;43.960;10.954;2022-09-09T15:19:32;35.20;81.80
10344;DHT22;5217;43.960;10.954;2022-09-09T15:22:12;35.20;83.10
10344;DHT22;5217;43.960;10.954;2022-09-09T15:24:45;35.10;81.30
10344;DHT22;5217;43.960;10.954;2022-09-09T15:27:17;35.10;80.10
10344;DHT22;5217;43.960;10.954;2022-09-09T15:29:47;35.00;80.60
10344;DHT22;5217;43.960;10.954;2022-09-09T15:32:15;35.10;80.20
10344;DHT22;5217;43.960;10.954;2022-09-09T15:34:44;35.00;80.80
10344;DHT22;5217;43.960;10.954;2022-09-09T15:37:13;35.00;80.70
10344;DHT22;5217;43.960;10.954;2022-09-09T15:39:41;35.00;81.00
10344;DHT22;5217;43.960;10.954;2022-09-09T15:42:10;35.00;81.20
10344;DHT22;5217;43.960;10.954;2022-09-09T15:44:39;34.90;81.30
10344;DHT22;5217;43.960;10.954;2022-09-09T15:47:12;34.90;81.90
10344;DHT22;5217;43.960;10.954;2022-09-09T15:49:42;34.80;82.00
10344;DHT22;5217;43.960;10.954;2022-09-09T15:52:10;34.60;81.20
10344;DHT22;5217;43.960;10.954;2022-09-09T15:54:39;34.30;81.50
10344;DHT22;5217;43.960;10.954;2022-09-09T15:57:12;34.00;81.90
10344;DHT22;5217;43.960;10.954;2022-09-09T15:59:40;33.90;82.70
10344;DHT22;5217;43.960;10.954;2022-09-09T16:02:11;33.80;83.20
10344;DHT22;5217;43.960;10.954;2022-09-09T16:04:39;33.60;84.00
10344;DHT22;5217;43.960;10.954;2022-09-09T16:07:08;33.50;84.20
10344;DHT22;5217;43.960;10.954;2022-09-09T16:09:37;33.20;84.00
10344;DHT22;5217;43.960;10.954;2022-09-09T16:12:06;33.00;84.40
10344;DHT22;5217;43.960;10.954;2022-09-09T16:14:36;32.90;85.80